Richmond Heights, Missouri
Current Conditions -  °F | °C
As of 8:51 PM on Wednesday 22 Oct 2014 (Local Time) from KSTL Reporting Station
Few Clouds Few Clouds  
Wind Chill: 52°   Ceiling: Unl
Heat Index: 52°   Visibility: 10mi
Dew Point: 41°   Wind: 6mph
Humidity: 66%   Direction: 120°ESE
Pressure: 30.23"   Gusts: NA
Location:  38.63°N, 90.32°W
Report Text: KSTL 230151Z 12005KT 10SM FEW250 11/05 A3023 RMK AO2 SLP237 T01110050
Loading
Personal Weather Stations






























Interactive Weather Map New forecast layout! Learn more

10-Day Weather Forecast

Advertisements
Track Severe Weather on mobile